Azle, Texas
Current Conditions -  °F | °C
As of 9:52 PM on Sunday 21 Dec 2014 (Local Time) from KNFW Reporting Station
Overcast Overcast  
Wind Chill: 54°   Ceiling: 1300
Heat Index: 54°   Visibility: 10mi
Dew Point: 46°   Wind: 10mph
Humidity: 75%   Direction: 150°SSE
Pressure: 29.79"   Gusts: NA
Location:  32.88°N, 97.54°W
Report Text: KNFW 220352Z AUTO 15009KT 10SM OVC013 12/08 A2979 RMK AO2 SLP074 T01220078
Loading
Personal Weather Stations






























Interactive Weather Map New forecast layout! Learn more

10-Day Weather Forecast

Advertisements
Track Severe Weather on mobile